createdAt,value
2018-07-06T00:00:00.471Z,2.10
2018-07-06T00:01:54.021Z,2.10
2018-07-06T00:02:54.042Z,2.00
2018-07-06T00:04:47.592Z,2.20
2018-07-06T00:05:47.615Z,2.00
2018-07-06T00:07:41.162Z,1.90
2018-07-06T00:08:41.182Z,2.00
2018-07-06T00:10:34.728Z,2.00
2018-07-06T00:11:34.754Z,1.80
2018-07-06T00:13:28.307Z,2.00
2018-07-06T00:14:28.323Z,2.10
2018-07-06T00:16:21.324Z,1.80
2018-07-06T00:17:21.342Z,2.00
2018-07-06T00:19:14.415Z,1.80
2018-07-06T00:20:14.440Z,1.90
2018-07-06T00:22:07.985Z,2.30
2018-07-06T00:23:08.011Z,2.10
2018-07-06T00:25:01.043Z,2.00
2018-07-06T00:26:01.069Z,1.90
2018-07-06T00:27:54.616Z,2.10
2018-07-06T00:28:54.636Z,1.90
2018-07-06T00:30:48.185Z,2.10
2018-07-06T00:31:48.209Z,2.20
2018-07-06T00:33:41.756Z,2.00
2018-07-06T00:34:41.774Z,2.00
2018-07-06T00:36:35.792Z,1.90
2018-07-06T00:37:35.351Z,2.10
2018-07-06T00:39:28.394Z,2.00
2018-07-06T00:40:28.408Z,2.00
2018-07-06T00:42:21.954Z,2.10
2018-07-06T00:43:21.979Z,1.90
2018-07-06T00:45:15.525Z,2.20
2018-07-06T00:46:15.548Z,2.10
2018-07-06T00:48:08.583Z,2.00
2018-07-06T00:49:08.611Z,2.10
2018-07-06T00:51:02.154Z,1.90
2018-07-06T00:52:02.179Z,2.00
2018-07-06T00:53:55.726Z,2.00
2018-07-06T00:54:55.823Z,2.10
2018-07-06T00:56:49.317Z,2.10
2018-07-06T00:57:49.320Z,2.30
2018-07-06T00:59:42.353Z,2.30
2018-07-06T01:00:42.377Z,2.20
2018-07-06T01:02:35.928Z,2.30
2018-07-06T01:03:35.950Z,2.10
2018-07-06T01:05:29.495Z,2.20
2018-07-06T01:06:29.519Z,2.00
2018-07-06T01:08:23.095Z,2.10
2018-07-06T01:09:23.110Z,2.40
2018-07-06T01:11:16.635Z,2.40
2018-07-06T01:12:16.659Z,2.30
2018-07-06T01:14:10.214Z,2.10
2018-07-06T01:15:10.229Z,2.50
2018-07-06T01:17:03.273Z,2.40
2018-07-06T01:18:03.291Z,2.00
2018-07-06T01:19:56.834Z,2.40
2018-07-06T01:20:56.863Z,2.10
2018-07-06T01:22:50.406Z,2.20
2018-07-06T01:23:50.431Z,2.10
2018-07-06T01:25:44.058Z,2.20
2018-07-06T01:26:44.000Z,2.30
2018-07-06T01:28:37.597Z,2.40
2018-07-06T01:29:37.570Z,2.20
2018-07-06T01:31:31.115Z,2.50
2018-07-06T01:32:31.144Z,2.60
2018-07-06T01:34:24.686Z,2.10
2018-07-06T01:35:24.710Z,2.10
2018-07-06T01:37:18.263Z,2.20
2018-07-06T01:38:18.283Z,2.50
2018-07-06T01:40:12.290Z,2.30
2018-07-06T01:41:11.851Z,2.30
2018-07-06T01:43:05.450Z,2.40
2018-07-06T01:44:05.422Z,2.30
2018-07-06T01:45:58.968Z,2.20
2018-07-06T01:46:58.993Z,2.20
2018-07-06T01:48:52.539Z,2.30
2018-07-06T01:49:52.565Z,2.00
2018-07-06T01:51:46.110Z,2.00
2018-07-06T01:52:46.132Z,2.40
2018-07-06T01:54:39.680Z,2.20
2018-07-06T01:55:39.703Z,2.50
2018-07-06T01:57:33.252Z,2.30
2018-07-06T01:58:33.276Z,2.10
2018-07-06T02:00:26.837Z,2.30
2018-07-06T02:01:26.844Z,2.10
2018-07-06T02:03:20.393Z,2.20
2018-07-06T02:04:20.415Z,2.30
2018-07-06T02:06:13.962Z,2.30
2018-07-06T02:07:13.987Z,2.20
2018-07-06T02:09:07.532Z,2.10
2018-07-06T02:10:07.566Z,2.20
2018-07-06T02:12:00.592Z,2.40
2018-07-06T02:13:00.615Z,2.10
2018-07-06T02:14:54.161Z,2.40
2018-07-06T02:15:54.185Z,2.20
2018-07-06T02:17:47.738Z,2.10
2018-07-06T02:18:47.756Z,2.20
2018-07-06T02:20:41.301Z,2.30
2018-07-06T02:21:41.326Z,2.20
2018-07-06T02:23:34.878Z,2.30
2018-07-06T02:24:34.901Z,2.40
2018-07-06T02:26:27.931Z,2.30
2018-07-06T02:27:27.955Z,2.10
2018-07-06T02:29:21.501Z,2.20
2018-07-06T02:30:21.527Z,2.10
2018-07-06T02:32:15.073Z,2.00
2018-07-06T02:33:15.097Z,2.30
2018-07-06T02:35:08.644Z,2.30
2018-07-06T02:36:08.666Z,2.40
2018-07-06T02:38:02.219Z,2.00
2018-07-06T02:39:02.239Z,2.30
2018-07-06T02:40:55.784Z,2.30
2018-07-06T02:41:55.808Z,2.40
2018-07-06T02:43:49.356Z,2.60
2018-07-06T02:44:49.381Z,2.30
2018-07-06T02:46:42.920Z,2.30
2018-07-06T02:47:42.943Z,2.40
2018-07-06T02:49:36.494Z,2.30
2018-07-06T02:50:36.520Z,2.20
2018-07-06T02:52:30.069Z,2.40
2018-07-06T02:53:30.090Z,2.10
2018-07-06T02:55:23.636Z,2.60
2018-07-06T02:56:23.663Z,2.20
2018-07-06T02:58:17.304Z,2.60
2018-07-06T02:59:17.260Z,2.40
2018-07-06T03:01:10.776Z,2.40
2018-07-06T03:02:10.801Z,2.40
2018-07-06T03:04:03.842Z,2.50
2018-07-06T03:05:03.861Z,2.60
2018-07-06T03:06:57.405Z,2.80
2018-07-06T03:07:57.431Z,2.40
2018-07-06T03:09:50.976Z,2.40
2018-07-06T03:10:51.001Z,2.30
2018-07-06T03:12:44.034Z,2.50
2018-07-06T03:13:44.058Z,2.60
2018-07-06T03:15:37.605Z,2.50
2018-07-06T03:16:37.628Z,2.60
2018-07-06T03:18:31.183Z,2.40
2018-07-06T03:19:31.199Z,2.80
2018-07-06T03:21:24.747Z,2.50
2018-07-06T03:22:24.770Z,2.70
2018-07-06T03:24:18.317Z,2.80
2018-07-06T03:25:18.341Z,2.50
2018-07-06T03:27:11.888Z,2.90
2018-07-06T03:28:11.952Z,2.40
2018-07-06T03:30:05.461Z,2.80
2018-07-06T03:31:05.486Z,2.60
2018-07-06T03:32:59.029Z,2.70
2018-07-06T03:33:59.051Z,2.70
2018-07-06T03:35:53.417Z,2.50
2018-07-06T03:36:53.442Z,2.70
2018-07-06T03:38:46.988Z,2.80
2018-07-06T03:39:47.013Z,2.70
2018-07-06T03:41:40.047Z,2.60
2018-07-06T03:42:40.071Z,2.70
2018-07-06T03:44:33.616Z,2.70
2018-07-06T03:45:33.641Z,3.10
2018-07-06T03:47:27.187Z,2.80
2018-07-06T03:48:27.213Z,2.80
2018-07-06T03:50:20.758Z,2.90
2018-07-06T03:51:20.781Z,2.90
2018-07-06T03:53:14.330Z,2.80
2018-07-06T03:54:14.354Z,2.80
2018-07-06T03:56:07.902Z,3.00
2018-07-06T03:57:07.921Z,2.90
2018-07-06T03:59:01.467Z,2.80
2018-07-06T04:00:01.484Z,3.00
2018-07-06T04:01:55.039Z,3.00
2018-07-06T04:02:55.066Z,3.00
2018-07-06T04:04:48.615Z,2.90
2018-07-06T04:05:48.635Z,2.80
2018-07-06T04:07:42.180Z,2.80
2018-07-06T04:08:42.204Z,2.80
2018-07-06T04:10:35.752Z,2.60
2018-07-06T04:11:35.775Z,3.00
2018-07-06T04:13:28.810Z,3.00
2018-07-06T04:14:28.834Z,3.10
2018-07-06T04:16:22.380Z,3.00
2018-07-06T04:17:22.404Z,2.90
2018-07-06T04:19:15.437Z,2.90
2018-07-06T04:20:15.462Z,3.30
2018-07-06T04:22:08.497Z,3.00
2018-07-06T04:23:08.524Z,2.90
2018-07-06T04:25:02.066Z,2.90
2018-07-06T04:26:02.095Z,3.10
2018-07-06T04:27:55.639Z,3.30
2018-07-06T04:28:55.662Z,2.90
2018-07-06T04:30:49.208Z,3.20
2018-07-06T04:31:49.232Z,2.90
2018-07-06T04:33:42.778Z,3.00
2018-07-06T04:34:42.801Z,3.20
2018-07-06T04:36:36.348Z,2.90
2018-07-06T04:37:36.373Z,2.80
2018-07-06T04:39:29.920Z,3.00
2018-07-06T04:40:29.944Z,3.10
2018-07-06T04:42:23.490Z,2.90
2018-07-06T04:43:23.513Z,3.00
2018-07-06T04:45:17.074Z,3.20
2018-07-06T04:46:17.083Z,3.10
2018-07-06T04:48:10.631Z,3.10
2018-07-06T04:49:10.656Z,2.80
2018-07-06T04:51:04.226Z,2.70
2018-07-06T04:52:04.225Z,2.90
2018-07-06T04:53:57.772Z,3.10
2018-07-06T04:54:57.798Z,2.90
2018-07-06T04:56:51.341Z,3.10
2018-07-06T04:57:51.366Z,2.80
2018-07-06T04:59:44.930Z,3.00
2018-07-06T05:00:44.939Z,3.00
2018-07-06T05:02:38.483Z,3.00
2018-07-06T05:03:38.507Z,2.90
2018-07-06T05:05:32.055Z,3.10
2018-07-06T05:06:32.077Z,3.30
2018-07-06T05:08:25.626Z,3.00
2018-07-06T05:09:25.647Z,3.30
2018-07-06T05:11:19.195Z,3.20
2018-07-06T05:12:19.217Z,3.70
2018-07-06T05:14:12.765Z,3.60
2018-07-06T05:15:12.791Z,3.40
2018-07-06T05:17:06.337Z,3.60
2018-07-06T05:18:06.361Z,3.60
2018-07-06T05:19:59.906Z,3.70
2018-07-06T05:20:59.930Z,3.60
2018-07-06T05:22:52.970Z,3.10
2018-07-06T05:23:52.989Z,3.60
2018-07-06T05:25:46.550Z,3.40
2018-07-06T05:26:46.563Z,3.60
2018-07-06T05:28:40.108Z,3.60
2018-07-06T05:29:40.130Z,3.50
2018-07-06T05:31:33.164Z,3.30
2018-07-06T05:32:33.188Z,3.30
2018-07-06T05:34:26.224Z,16.50
2018-07-06T05:35:26.247Z,14.30
2018-07-06T05:37:19.796Z,16.30
2018-07-06T05:38:19.817Z,20.30
2018-07-06T05:40:13.368Z,21.80
2018-07-06T05:41:13.395Z,20.40
2018-07-06T05:43:06.937Z,18.30
2018-07-06T05:44:06.959Z,20.00
2018-07-06T05:46:00.511Z,17.10
2018-07-06T05:47:00.531Z,16.10
2018-07-06T05:48:53.564Z,14.80
2018-07-06T05:49:53.587Z,15.00
2018-07-06T05:51:47.135Z,14.90
2018-07-06T05:52:47.158Z,14.90
2018-07-06T05:54:40.191Z,13.80
2018-07-06T05:55:40.215Z,13.70
2018-07-06T05:57:33.790Z,13.10
2018-07-06T05:58:33.787Z,13.90
2018-07-06T06:00:27.339Z,13.70
2018-07-06T06:01:27.357Z,11.80
2018-07-06T06:03:20.904Z,11.90
2018-07-06T06:04:20.929Z,11.80
2018-07-06T06:06:13.961Z,12.40
2018-07-06T06:07:13.986Z,11.40
2018-07-06T06:09:07.536Z,11.20
2018-07-06T06:10:07.557Z,10.90
2018-07-06T06:12:01.105Z,11.00
2018-07-06T06:13:01.127Z,10.10
2018-07-06T06:14:54.703Z,10.20
2018-07-06T06:15:54.701Z,10.50
2018-07-06T06:17:48.243Z,10.40
2018-07-06T06:18:48.355Z,10.20
2018-07-06T06:20:41.820Z,10.30
2018-07-06T06:21:41.840Z,10.20
2018-07-06T06:23:35.385Z,10.10
2018-07-06T06:24:35.406Z,10.10
2018-07-06T06:26:28.962Z,10.50
2018-07-06T06:27:28.981Z,11.10
2018-07-06T06:29:22.014Z,11.50
2018-07-06T06:30:22.040Z,11.10
2018-07-06T06:32:15.585Z,11.90
2018-07-06T06:33:15.688Z,12.50
2018-07-06T06:35:08.644Z,12.50
2018-07-06T06:36:08.666Z,13.10
2018-07-06T06:38:02.229Z,14.10
2018-07-06T06:39:02.242Z,13.70
2018-07-06T06:40:55.793Z,14.40
2018-07-06T06:41:55.808Z,14.00
2018-07-06T06:43:49.354Z,15.20
2018-07-06T06:44:49.396Z,15.00
2018-07-06T06:46:43.783Z,15.50
2018-07-06T06:47:43.768Z,15.70
2018-07-06T06:49:37.313Z,15.30
2018-07-06T06:50:37.338Z,15.10
2018-07-06T06:52:30.886Z,16.60
2018-07-06T06:53:30.908Z,16.20
2018-07-06T06:55:35.630Z,16.60
2018-07-06T06:56:35.667Z,16.40
2018-07-06T06:58:29.188Z,16.70
2018-07-06T06:59:29.212Z,16.90
2018-07-06T07:01:22.760Z,17.40
2018-07-06T07:02:22.783Z,17.30
2018-07-06T07:04:16.327Z,16.70
2018-07-06T07:05:16.352Z,16.40
2018-07-06T07:07:09.898Z,17.00
2018-07-06T07:08:09.923Z,16.90
2018-07-06T07:10:15.144Z,15.90
2018-07-06T07:11:15.168Z,17.10
2018-07-06T07:13:08.310Z,16.40
2018-07-06T07:14:08.338Z,16.70
2018-07-06T07:16:01.365Z,17.20
2018-07-06T07:17:01.428Z,16.30
2018-07-06T07:18:54.429Z,16.50
2018-07-06T07:19:54.445Z,16.60
2018-07-06T07:21:47.993Z,16.10
2018-07-06T07:22:48.016Z,15.80
2018-07-06T07:24:41.561Z,16.10
2018-07-06T07:25:41.585Z,16.20
2018-07-06T07:27:35.135Z,15.40
2018-07-06T07:28:35.157Z,14.80
2018-07-06T07:30:28.707Z,15.90
2018-07-06T07:31:28.727Z,15.10
2018-07-06T07:33:21.761Z,15.40
2018-07-06T07:34:21.785Z,15.40
2018-07-06T07:36:15.335Z,14.90
2018-07-06T07:37:15.355Z,14.70
2018-07-06T07:39:08.910Z,14.00
2018-07-06T07:40:08.925Z,13.70
2018-07-06T07:42:02.470Z,14.20
2018-07-06T07:43:02.505Z,14.10
2018-07-06T07:44:56.043Z,13.90
2018-07-06T07:45:56.066Z,13.40
2018-07-06T07:47:49.629Z,14.40
2018-07-06T07:48:49.639Z,14.30
2018-07-06T07:50:42.680Z,14.70
2018-07-06T07:51:42.694Z,14.40
2018-07-06T07:53:36.246Z,15.70
2018-07-06T07:54:36.335Z,15.60
2018-07-06T07:56:29.813Z,15.90
2018-07-06T07:57:29.851Z,16.70
2018-07-06T07:59:23.386Z,16.30
2018-07-06T08:00:23.450Z,16.80
2018-07-06T08:02:16.444Z,16.90
2018-07-06T08:03:16.468Z,16.80
2018-07-06T08:05:09.499Z,17.20
2018-07-06T08:06:09.533Z,17.60
2018-07-06T08:08:03.072Z,17.80
2018-07-06T08:09:03.094Z,17.40
2018-07-06T08:10:56.641Z,18.60
2018-07-06T08:11:56.665Z,17.40
2018-07-06T08:13:50.213Z,18.70
2018-07-06T08:14:50.239Z,18.50
2018-07-06T08:16:43.782Z,18.40
2018-07-06T08:17:43.813Z,18.50
2018-07-06T08:19:37.345Z,19.20
2018-07-06T08:20:37.384Z,19.70
2018-07-06T08:22:30.928Z,19.50
2018-07-06T08:23:30.951Z,20.40
2018-07-06T08:25:24.014Z,19.70
2018-07-06T08:26:24.006Z,20.10
2018-07-06T08:28:18.089Z,19.20
2018-07-06T08:29:17.580Z,20.40
2018-07-06T08:31:10.617Z,21.00
2018-07-06T08:32:10.635Z,20.50
2018-07-06T08:34:04.182Z,21.10
2018-07-06T08:35:04.205Z,21.30
2018-07-06T08:36:57.762Z,20.90
2018-07-06T08:37:57.786Z,20.30
2018-07-06T08:39:51.339Z,21.20
2018-07-06T08:40:51.350Z,20.90
2018-07-06T08:42:44.379Z,21.30
2018-07-06T08:43:44.404Z,21.50
2018-07-06T08:45:37.954Z,21.30
2018-07-06T08:46:37.977Z,21.20
2018-07-06T08:48:31.525Z,21.90
2018-07-06T08:49:31.549Z,22.20
2018-07-06T08:51:24.581Z,22.90
2018-07-06T08:52:24.609Z,22.10
2018-07-06T08:54:18.150Z,23.20
2018-07-06T08:55:18.175Z,22.20
2018-07-06T08:57:11.217Z,22.20
2018-07-06T08:58:11.234Z,22.60
2018-07-06T09:00:04.779Z,23.00
2018-07-06T09:01:04.812Z,22.20
2018-07-06T09:02:58.352Z,23.30
2018-07-06T09:03:58.381Z,23.40
2018-07-06T09:05:51.919Z,23.10
2018-07-06T09:06:51.946Z,22.50
2018-07-06T09:08:44.979Z,22.60
2018-07-06T09:09:45.003Z,22.50
2018-07-06T09:11:38.567Z,23.40
2018-07-06T09:12:38.572Z,21.60
2018-07-06T09:14:32.122Z,22.60
2018-07-06T09:15:32.147Z,21.80
2018-07-06T09:17:25.691Z,23.20
2018-07-06T09:18:25.714Z,23.80
2018-07-06T09:20:19.485Z,23.10
2018-07-06T09:21:19.283Z,22.80
2018-07-06T09:23:12.329Z,22.50
2018-07-06T09:24:12.391Z,22.40
2018-07-06T09:26:05.475Z,22.80
2018-07-06T09:27:05.401Z,23.10
2018-07-06T09:28:58.965Z,22.30
2018-07-06T09:29:58.974Z,22.90
2018-07-06T09:31:52.519Z,23.30
2018-07-06T09:32:52.547Z,23.50
2018-07-06T09:34:46.089Z,23.40
2018-07-06T09:35:46.126Z,23.30
2018-07-06T09:37:39.661Z,23.10
2018-07-06T09:38:39.682Z,23.40
2018-07-06T09:40:33.507Z,23.50
2018-07-06T09:41:33.502Z,23.00
2018-07-06T09:43:26.294Z,23.30
2018-07-06T09:44:26.312Z,23.80
2018-07-06T09:46:19.860Z,24.00
2018-07-06T09:47:19.883Z,22.70
2018-07-06T09:49:13.518Z,22.60
2018-07-06T09:50:13.533Z,23.50
2018-07-06T09:52:07.000Z,23.40
2018-07-06T09:53:07.023Z,23.80
2018-07-06T09:55:00.572Z,24.30
2018-07-06T09:56:00.595Z,23.70
2018-07-06T09:57:54.202Z,24.00
2018-07-06T09:58:54.167Z,23.90
2018-07-06T10:00:47.207Z,23.90
2018-07-06T10:01:47.236Z,24.60
2018-07-06T10:03:40.782Z,23.30
2018-07-06T10:04:40.793Z,23.30
2018-07-06T10:06:34.362Z,24.40
2018-07-06T10:07:34.387Z,24.20
2018-07-06T10:09:27.921Z,24.00
2018-07-06T10:10:27.944Z,23.30
2018-07-06T10:12:21.480Z,23.50
2018-07-06T10:13:21.508Z,23.60
2018-07-06T10:15:14.547Z,24.00
2018-07-06T10:16:14.602Z,23.90
2018-07-06T10:18:08.109Z,23.20
2018-07-06T10:19:08.133Z,22.50
2018-07-06T10:21:01.168Z,23.60
2018-07-06T10:22:01.194Z,24.10
2018-07-06T10:23:54.739Z,24.10
2018-07-06T10:24:54.761Z,24.70
2018-07-06T10:26:47.800Z,24.00
2018-07-06T10:27:47.824Z,23.60
2018-07-06T10:29:41.373Z,23.50
2018-07-06T10:30:41.394Z,24.10
2018-07-06T10:32:34.426Z,23.90
2018-07-06T10:33:34.513Z,24.50
2018-07-06T10:35:27.997Z,24.20
2018-07-06T10:36:28.022Z,24.10
2018-07-06T10:38:21.571Z,23.40
2018-07-06T10:39:21.593Z,23.70
2018-07-06T10:41:15.166Z,24.50
2018-07-06T10:42:15.163Z,24.10
2018-07-06T10:44:08.195Z,24.30
2018-07-06T10:45:08.219Z,24.30
2018-07-06T10:47:01.767Z,24.30
2018-07-06T10:48:01.791Z,24.10
2018-07-06T10:49:55.353Z,24.30
2018-07-06T10:50:55.361Z,24.30
2018-07-06T10:52:48.397Z,24.40
2018-07-06T10:53:48.418Z,23.90
2018-07-06T10:55:41.455Z,23.10
2018-07-06T10:56:41.478Z,25.10
2018-07-06T10:58:35.030Z,24.60
2018-07-06T10:59:35.052Z,24.40
2018-07-06T11:01:28.591Z,24.40
2018-07-06T11:02:28.627Z,23.90
2018-07-06T11:04:22.167Z,24.00
2018-07-06T11:05:22.189Z,24.00
2018-07-06T11:07:15.740Z,24.50
2018-07-06T11:08:15.761Z,24.50
2018-07-06T11:10:08.800Z,23.80
2018-07-06T11:11:08.819Z,23.80
2018-07-06T11:13:02.370Z,23.40
2018-07-06T11:14:02.390Z,24.30
2018-07-06T11:15:55.937Z,23.60
2018-07-06T11:16:55.959Z,23.90
2018-07-06T11:18:49.446Z,22.90
2018-07-06T11:19:49.467Z,23.60
2018-07-06T11:21:42.976Z,23.20
2018-07-06T11:22:42.998Z,22.70
2018-07-06T11:24:36.037Z,23.00
2018-07-06T11:25:36.061Z,22.60
2018-07-06T11:27:29.633Z,22.90
2018-07-06T11:28:29.625Z,21.60
2018-07-06T11:30:23.587Z,22.40
2018-07-06T11:31:23.615Z,22.70
2018-07-06T11:33:16.647Z,21.70
2018-07-06T11:34:16.664Z,22.40
2018-07-06T11:36:10.230Z,22.50
2018-07-06T11:37:10.252Z,22.00
2018-07-06T11:39:03.277Z,21.70
2018-07-06T11:40:03.296Z,20.90
2018-07-06T11:41:56.844Z,20.70
2018-07-06T11:42:56.872Z,20.60
2018-07-06T11:44:50.434Z,21.20
2018-07-06T11:45:50.434Z,20.70
2018-07-06T11:47:43.982Z,19.80
2018-07-06T11:48:44.006Z,20.50
2018-07-06T11:50:38.034Z,20.40
2018-07-06T11:51:37.603Z,19.90
2018-07-06T11:53:31.132Z,19.60
2018-07-06T11:54:31.147Z,19.80
2018-07-06T11:56:24.701Z,19.80
2018-07-06T11:57:24.716Z,19.50
2018-07-06T11:59:18.268Z,18.50
2018-07-06T12:00:18.290Z,19.00
2018-07-06T12:02:11.836Z,18.40
2018-07-06T12:03:11.858Z,18.40
2018-07-06T12:05:05.415Z,17.40
2018-07-06T12:06:05.437Z,17.70
2018-07-06T12:07:58.974Z,16.40
2018-07-06T12:08:58.997Z,18.00
2018-07-06T12:10:52.547Z,17.30
2018-07-06T12:11:52.570Z,17.00
2018-07-06T12:13:46.116Z,16.40
2018-07-06T12:14:46.141Z,16.00
2018-07-06T12:16:39.702Z,16.30
2018-07-06T12:17:39.711Z,16.00
2018-07-06T12:19:33.256Z,15.80
2018-07-06T12:20:33.286Z,16.20
2018-07-06T12:22:26.319Z,16.30
2018-07-06T12:23:26.341Z,15.00
2018-07-06T12:25:19.884Z,15.10
2018-07-06T12:26:19.909Z,14.70
2018-07-06T12:28:13.467Z,14.20
2018-07-06T12:29:13.553Z,14.10
2018-07-06T12:31:07.846Z,13.70
2018-07-06T12:32:07.864Z,14.50
2018-07-06T12:34:00.896Z,13.70
2018-07-06T12:35:00.927Z,13.30
2018-07-06T12:36:54.475Z,13.60
2018-07-06T12:37:54.497Z,13.70
2018-07-06T12:39:48.045Z,13.20
2018-07-06T12:40:48.069Z,13.00
2018-07-06T12:42:41.619Z,12.50
2018-07-06T12:43:41.641Z,13.30
2018-07-06T12:45:34.678Z,12.90
2018-07-06T12:46:34.700Z,12.50
2018-07-06T12:48:28.244Z,12.70
2018-07-06T12:49:28.270Z,12.70
2018-07-06T12:51:21.810Z,12.80
2018-07-06T12:52:21.838Z,11.90
2018-07-06T12:54:15.386Z,12.50
2018-07-06T12:55:15.410Z,11.90
2018-07-06T12:57:08.955Z,13.00
2018-07-06T12:58:09.016Z,12.10
2018-07-06T13:00:02.562Z,12.30
2018-07-06T13:01:02.550Z,12.00
2018-07-06T13:02:56.095Z,11.50
2018-07-06T13:03:56.124Z,11.80
2018-07-06T13:05:49.667Z,11.60
2018-07-06T13:06:49.699Z,11.90
2018-07-06T13:08:43.237Z,12.20
2018-07-06T13:09:43.261Z,11.90
2018-07-06T13:11:36.812Z,11.70
2018-07-06T13:12:36.834Z,11.00
2018-07-06T13:14:30.378Z,10.70
2018-07-06T13:15:30.404Z,11.40
2018-07-06T13:17:23.964Z,11.50
2018-07-06T13:18:23.974Z,11.40
2018-07-06T13:20:17.519Z,10.90
2018-07-06T13:21:17.545Z,11.00
2018-07-06T13:23:11.090Z,10.30
2018-07-06T13:24:11.116Z,10.50
2018-07-06T13:26:04.148Z,10.10
2018-07-06T13:27:04.173Z,10.30
2018-07-06T13:28:57.213Z,10.10
2018-07-06T13:29:57.235Z,9.90
2018-07-06T13:31:50.777Z,10.20
2018-07-06T13:32:50.797Z,9.50
2018-07-06T13:34:44.339Z,10.20
2018-07-06T13:35:44.371Z,10.60
2018-07-06T13:37:37.919Z,9.90
2018-07-06T13:38:37.938Z,9.50
2018-07-06T13:40:31.489Z,10.20
2018-07-06T13:41:31.512Z,10.10
2018-07-06T13:43:25.064Z,9.80
2018-07-06T13:44:25.081Z,9.90
2018-07-06T13:46:18.662Z,9.70
2018-07-06T13:47:18.663Z,10.00
2018-07-06T13:49:12.207Z,10.30
2018-07-06T13:50:12.281Z,10.20
2018-07-06T13:52:05.313Z,9.60
2018-07-06T13:53:05.343Z,9.90
2018-07-06T13:54:58.828Z,9.40
2018-07-06T13:55:58.852Z,9.10
2018-07-06T13:57:51.993Z,9.90
2018-07-06T13:58:52.018Z,9.40
2018-07-06T14:00:45.875Z,9.50
2018-07-06T14:01:45.903Z,9.40
2018-07-06T14:03:38.926Z,9.10
2018-07-06T14:04:38.950Z,9.10
2018-07-06T14:06:32.496Z,9.50
2018-07-06T14:07:32.521Z,9.30
2018-07-06T14:09:26.098Z,8.90
2018-07-06T14:10:26.092Z,9.60
2018-07-06T14:12:19.126Z,9.30
2018-07-06T14:13:19.155Z,9.50
2018-07-06T14:15:12.696Z,9.20
2018-07-06T14:16:12.726Z,9.40
2018-07-06T14:18:06.266Z,10.10
2018-07-06T14:19:06.289Z,9.70
2018-07-06T14:20:59.837Z,9.50
2018-07-06T14:21:59.860Z,9.40
2018-07-06T14:23:53.410Z,9.00
2018-07-06T14:24:53.430Z,8.90
2018-07-06T14:26:46.978Z,8.90
2018-07-06T14:27:47.035Z,9.30
2018-07-06T14:29:40.071Z,8.70
2018-07-06T14:30:40.065Z,9.70
2018-07-06T14:32:33.197Z,8.90
2018-07-06T14:33:33.218Z,9.20
2018-07-06T14:35:26.764Z,8.70
2018-07-06T14:36:26.792Z,8.80
2018-07-06T14:38:19.826Z,8.70
2018-07-06T14:39:19.850Z,9.00
2018-07-06T14:41:13.482Z,9.20
2018-07-06T14:42:13.423Z,9.00
2018-07-06T14:44:06.972Z,8.70
2018-07-06T14:45:06.992Z,9.20
2018-07-06T14:47:00.568Z,9.20
2018-07-06T14:48:00.593Z,9.10
2018-07-06T14:49:54.109Z,8.90
2018-07-06T14:50:54.133Z,8.90
2018-07-06T14:52:47.741Z,9.30
2018-07-06T14:53:47.715Z,8.80
2018-07-06T14:55:41.260Z,8.80
2018-07-06T14:56:41.276Z,9.00
2018-07-06T14:58:34.819Z,9.30
2018-07-06T14:59:35.760Z,9.00
2018-07-06T15:01:28.391Z,9.20
2018-07-06T15:02:28.413Z,8.70
2018-07-06T15:04:26.012Z,8.50
2018-07-06T15:05:26.000Z,8.90
2018-07-06T15:07:19.014Z,8.70
2018-07-06T15:08:19.036Z,9.10
2018-07-06T15:10:12.584Z,9.00
2018-07-06T15:11:12.606Z,8.50
2018-07-06T15:13:05.731Z,9.00
2018-07-06T15:14:05.665Z,9.40
2018-07-06T15:15:59.265Z,9.30
2018-07-06T15:16:59.239Z,8.70
2018-07-06T15:18:52.781Z,9.40
2018-07-06T15:19:52.807Z,9.10
2018-07-06T15:21:46.352Z,9.10
2018-07-06T15:22:46.376Z,9.10
2018-07-06T15:24:39.933Z,9.20
2018-07-06T15:25:39.946Z,9.20
2018-07-06T15:27:33.502Z,9.50
2018-07-06T15:28:33.518Z,8.70
2018-07-06T15:30:27.062Z,9.00
2018-07-06T15:31:27.159Z,9.40
2018-07-06T15:33:20.640Z,8.90
2018-07-06T15:34:20.657Z,8.70
2018-07-06T15:36:13.698Z,8.80
2018-07-06T15:37:13.727Z,9.10
2018-07-06T15:39:07.253Z,8.80
2018-07-06T15:40:07.286Z,8.90
2018-07-06T15:42:00.836Z,8.60
2018-07-06T15:43:00.855Z,8.70
2018-07-06T15:44:54.403Z,8.80
2018-07-06T15:45:54.428Z,8.70
2018-07-06T15:47:47.973Z,9.20
2018-07-06T15:48:48.000Z,8.90
2018-07-06T15:50:42.015Z,9.10
2018-07-06T15:51:41.568Z,8.20
2018-07-06T15:53:35.138Z,8.60
2018-07-06T15:54:35.150Z,8.80
2018-07-06T15:56:28.689Z,8.30
2018-07-06T15:57:28.754Z,8.50
2018-07-06T15:59:22.258Z,8.90
2018-07-06T16:00:22.280Z,8.50
2018-07-06T16:02:15.828Z,8.60
2018-07-06T16:03:15.851Z,8.70
2018-07-06T16:05:09.420Z,8.70
2018-07-06T16:06:09.446Z,8.90
2018-07-06T16:08:02.979Z,9.10
2018-07-06T16:09:03.074Z,8.50
2018-07-06T16:10:56.539Z,9.10
2018-07-06T16:11:56.564Z,9.20
2018-07-06T16:13:50.107Z,9.00
2018-07-06T16:14:50.132Z,9.40
2018-07-06T16:16:43.713Z,8.90
2018-07-06T16:17:43.732Z,8.80
2018-07-06T16:19:37.280Z,8.90
2018-07-06T16:20:37.282Z,9.00
2018-07-06T16:22:30.820Z,8.90
2018-07-06T16:23:30.843Z,9.10
2018-07-06T16:25:24.414Z,8.90
2018-07-06T16:26:24.413Z,8.90
2018-07-06T16:28:17.960Z,8.70
2018-07-06T16:29:17.987Z,9.00
2018-07-06T16:31:11.027Z,9.80
2018-07-06T16:32:11.040Z,8.80
2018-07-06T16:34:04.609Z,8.70
2018-07-06T16:35:04.640Z,8.80
2018-07-06T16:36:58.166Z,9.00
2018-07-06T16:37:58.192Z,9.10
2018-07-06T16:39:51.758Z,8.30
2018-07-06T16:40:51.790Z,8.40
2018-07-06T16:42:45.322Z,8.70
2018-07-06T16:43:45.323Z,8.60
2018-07-06T16:45:38.938Z,8.50
2018-07-06T16:46:38.896Z,8.30
2018-07-06T16:48:32.440Z,8.20
2018-07-06T16:49:32.472Z,8.00
2018-07-06T16:51:26.318Z,8.30
2018-07-06T16:52:26.350Z,8.00
2018-07-06T16:54:20.942Z,8.10
2018-07-06T16:55:20.962Z,8.30
2018-07-06T16:57:14.512Z,7.30
2018-07-06T16:58:14.529Z,8.10
2018-07-06T17:00:08.064Z,7.50
2018-07-06T17:01:08.102Z,8.50
2018-07-06T17:03:01.113Z,7.70
2018-07-06T17:04:01.140Z,8.00
2018-07-06T17:05:54.682Z,8.20
2018-07-06T17:06:54.725Z,7.80
2018-07-06T17:08:48.255Z,8.00
2018-07-06T17:09:48.280Z,8.00
2018-07-06T17:11:41.825Z,7.70
2018-07-06T17:12:41.850Z,8.20
2018-07-06T17:14:35.444Z,8.20
2018-07-06T17:15:35.417Z,7.70
2018-07-06T17:17:28.966Z,7.60
2018-07-06T17:18:28.992Z,7.50
2018-07-06T17:20:22.537Z,7.70
2018-07-06T17:21:22.560Z,7.90
2018-07-06T17:23:16.103Z,7.90
2018-07-06T17:24:16.134Z,7.50
2018-07-06T17:26:09.677Z,8.10
2018-07-06T17:27:09.697Z,7.50
2018-07-06T17:29:03.246Z,7.60
2018-07-06T17:30:03.274Z,7.60
2018-07-06T17:31:56.819Z,7.50
2018-07-06T17:32:56.842Z,7.60
2018-07-06T17:34:50.388Z,7.50
2018-07-06T17:35:50.411Z,7.50
2018-07-06T17:37:43.956Z,7.70
2018-07-06T17:38:44.000Z,7.60
2018-07-06T17:40:37.529Z,8.00
2018-07-06T17:41:37.552Z,7.50
2018-07-06T17:43:30.583Z,7.30
2018-07-06T17:44:30.618Z,7.10
2018-07-06T17:46:24.179Z,7.20
2018-07-06T17:47:24.193Z,7.10
2018-07-06T17:49:17.740Z,7.30
2018-07-06T17:50:17.793Z,7.00
2018-07-06T17:52:11.299Z,7.40
2018-07-06T17:53:11.325Z,7.00
2018-07-06T17:55:04.414Z,7.20
2018-07-06T17:56:04.386Z,6.90
2018-07-06T17:57:57.948Z,7.20
2018-07-06T17:58:57.974Z,7.10
2018-07-06T18:00:51.499Z,7.10
2018-07-06T18:01:51.524Z,7.00
2018-07-06T18:03:45.069Z,7.50
2018-07-06T18:04:45.089Z,7.20
2018-07-06T18:06:38.641Z,7.00
2018-07-06T18:07:38.663Z,7.40
2018-07-06T18:09:32.209Z,7.30
2018-07-06T18:10:32.237Z,6.40
2018-07-06T18:12:25.780Z,6.90
2018-07-06T18:13:25.804Z,7.40
2018-07-06T18:15:19.349Z,6.70
2018-07-06T18:16:19.370Z,7.10
2018-07-06T18:18:12.919Z,7.10
2018-07-06T18:19:12.944Z,6.90
2018-07-06T18:21:07.513Z,6.80
2018-07-06T18:22:07.537Z,6.90
2018-07-06T18:24:01.085Z,7.30
2018-07-06T18:25:01.107Z,6.60
2018-07-06T18:26:54.654Z,7.80
2018-07-06T18:27:54.684Z,6.90
2018-07-06T18:29:48.225Z,7.10
2018-07-06T18:30:48.248Z,7.20
2018-07-06T18:32:41.805Z,7.10
2018-07-06T18:33:41.823Z,6.40
2018-07-06T18:35:35.366Z,7.30
2018-07-06T18:36:35.401Z,8.20
2018-07-06T18:38:28.944Z,7.00
2018-07-06T18:39:28.989Z,6.80
2018-07-06T18:41:22.511Z,7.60
2018-07-06T18:42:22.535Z,7.40
2018-07-06T18:44:16.095Z,7.50
2018-07-06T18:45:16.117Z,7.10
2018-07-06T18:47:09.653Z,7.10
2018-07-06T18:48:09.671Z,6.90
2018-07-06T18:50:03.217Z,6.60
2018-07-06T18:51:03.243Z,6.60
2018-07-06T18:52:56.789Z,6.50
2018-07-06T18:53:56.813Z,6.50
2018-07-06T18:55:50.360Z,6.60
2018-07-06T18:56:50.384Z,6.40
2018-07-06T18:58:43.934Z,6.40